mardi 18 mars 2014

ALERTE SPOTTING 18/03/14


**** Grève ATC ****

73H TC-AZP Pegasus (sticker Asia)
   PC401/PC402  13h20/14h10

32A EC-LVP Vueling.com (couleur Linking Europe)
   VY8836/VY8837   20h30/21h05

Manque les prévisions/immats UX / BE / certains IB / AZ / TP / BA / AH
*** Heures en Local Time **
Prévisions matinales soumises à modifications de dernières minute. Voir le log du mois pour la version 'définitive' de la journée: http://www.airkalo.com/ORLYAVIATION/Logdumois.html

le TAF de la journée:


METAR: LFPO 180400Z VRB02KT 4500 BR OVC010 07/06 Q1019 TEMPO 2500
BR OVC003=
TAF LONG: LFPO 172300Z 1800/1906 VRB03KT 6000 NSC BECMG 1800/1803 4000 BR
SCT012 BKN210 TEMPO 1803/1808 2500 BR BKN003 BECMG 1808/1810 7000
BKN012 BECMG 1810/1812 27007KT 9999 BKN018 TEMPO 1814/1821 27012KT
SCT025 BECMG 1821/1822 27006KT CAVOK TEMPO 1903/1906 1500 BR BKN003=